createdAt,value
2022-12-25T00:00:42.295Z,11.23
2022-12-25T00:03:08.924Z,9.10
2022-12-25T00:05:38.107Z,9.32
2022-12-25T00:10:31.262Z,9.55
2022-12-25T00:12:59.130Z,9.18
2022-12-25T00:15:25.654Z,8.23
2022-12-25T00:17:52.144Z,9.70
2022-12-25T00:20:18.763Z,11.05
2022-12-25T00:22:45.327Z,10.57
2022-12-25T00:25:11.903Z,9.48
2022-12-25T00:27:38.399Z,9.32
2022-12-25T00:30:07.671Z,11.93
2022-12-25T00:32:35.298Z,9.70
2022-12-25T00:35:01.932Z,8.63
2022-12-25T00:37:28.418Z,8.63
2022-12-25T00:39:54.890Z,10.30
2022-12-25T00:42:21.587Z,8.25
2022-12-25T00:44:48.954Z,9.82
2022-12-25T00:47:17.625Z,10.05
2022-12-25T00:49:44.495Z,11.02
2022-12-25T00:52:11.055Z,10.55
2022-12-25T00:54:37.806Z,11.07
2022-12-25T00:57:04.431Z,11.85
2022-12-25T00:59:31.681Z,9.32
2022-12-25T01:01:58.604Z,8.50
2022-12-25T01:04:26.461Z,10.60
2022-12-25T01:06:52.968Z,9.13
2022-12-25T01:09:22.175Z,7.63
2022-12-25T01:11:48.687Z,10.63
2022-12-25T01:14:15.242Z,10.98
2022-12-25T01:16:41.943Z,11.43
2022-12-25T01:19:08.945Z,8.80
2022-12-25T01:21:36.822Z,9.27
2022-12-25T01:24:03.662Z,8.15
2022-12-25T01:26:30.172Z,9.20
2022-12-25T01:28:56.717Z,8.07
2022-12-25T01:31:24.805Z,7.97
2022-12-25T01:33:51.739Z,8.98
2022-12-25T01:36:19.850Z,9.15
2022-12-25T01:38:48.664Z,15.38
2022-12-25T01:41:17.933Z,7.93
2022-12-25T01:43:58.908Z,8.18
2022-12-25T01:46:25.623Z,8.68
2022-12-25T01:48:53.640Z,10.52
2022-12-25T01:51:25.631Z,7.43
2022-12-25T01:53:56.037Z,9.50
2022-12-25T01:56:22.772Z,10.00
2022-12-25T01:58:49.409Z,8.13
2022-12-25T02:01:16.113Z,7.45
2022-12-25T02:03:42.805Z,9.35
2022-12-25T02:06:09.480Z,10.57
2022-12-25T02:08:36.277Z,10.68
2022-12-25T02:11:04.415Z,8.05
2022-12-25T02:13:31.117Z,7.72
2022-12-25T02:16:04.441Z,9.52
2022-12-25T02:18:42.017Z,9.13
2022-12-25T02:21:29.938Z,8.45
2022-12-25T02:24:12.727Z,8.07
2022-12-25T02:26:59.614Z,10.30
2022-12-25T02:29:33.158Z,5.53
2022-12-25T02:32:04.493Z,8.55
2022-12-25T02:34:36.046Z,6.32
2022-12-25T02:37:08.699Z,9.85
2022-12-25T02:39:44.289Z,5.28
2022-12-25T02:42:18.159Z,8.70
2022-12-25T02:44:49.846Z,8.23
2022-12-25T02:47:17.767Z,8.50
2022-12-25T02:49:45.476Z,7.65
2022-12-25T02:52:15.400Z,8.15
2022-12-25T02:54:50.331Z,6.47
2022-12-25T02:57:20.558Z,7.20
2022-12-25T02:59:50.985Z,7.07
2022-12-25T03:02:18.512Z,6.88
2022-12-25T03:04:46.189Z,7.43
2022-12-25T03:07:16.278Z,6.97
2022-12-25T03:09:48.772Z,6.07
2022-12-25T03:12:22.280Z,7.65
2022-12-25T03:14:50.258Z,4.80
2022-12-25T03:17:16.785Z,6.72
2022-12-25T03:19:43.361Z,5.40
2022-12-25T03:22:13.189Z,8.55
2022-12-25T03:24:40.042Z,7.65
2022-12-25T03:27:06.493Z,5.63
2022-12-25T03:29:34.089Z,5.82
2022-12-25T03:32:11.362Z,9.10
2022-12-25T03:34:42.794Z,5.10
2022-12-25T03:37:21.316Z,5.20
2022-12-25T03:40:03.638Z,9.40
2022-12-25T03:42:37.615Z,7.93
2022-12-25T03:45:09.763Z,5.93
2022-12-25T03:47:39.583Z,5.18
2022-12-25T03:50:12.296Z,7.18
2022-12-25T03:52:40.057Z,5.82
2022-12-25T03:55:09.934Z,4.63
2022-12-25T03:57:36.391Z,5.28
2022-12-25T04:00:03.486Z,6.28
2022-12-25T04:02:37.726Z,4.32
2022-12-25T04:05:04.954Z,5.25
2022-12-25T04:07:31.408Z,3.58
2022-12-25T04:09:57.936Z,5.93
2022-12-25T04:12:24.395Z,5.28
2022-12-25T04:14:51.071Z,5.25
2022-12-25T04:17:17.513Z,5.38
2022-12-25T04:19:45.326Z,3.60
2022-12-25T04:22:11.781Z,4.32
2022-12-25T04:24:38.227Z,3.65
2022-12-25T04:27:04.719Z,5.18
2022-12-25T04:29:31.172Z,4.22
2022-12-25T04:31:57.627Z,4.95
2022-12-25T04:34:24.048Z,4.32
2022-12-25T04:36:51.853Z,4.45
2022-12-25T04:39:18.374Z,4.05
2022-12-25T04:41:44.845Z,4.47
2022-12-25T04:44:11.327Z,3.40
2022-12-25T04:46:37.899Z,5.60
2022-12-25T04:49:04.425Z,4.43
2022-12-25T04:51:30.863Z,3.53
2022-12-25T04:53:58.674Z,5.88
2022-12-25T04:56:25.156Z,5.32
2022-12-25T04:58:51.633Z,4.18
2022-12-25T05:01:18.190Z,5.72
2022-12-25T05:03:44.774Z,3.75
2022-12-25T05:06:11.317Z,4.68
2022-12-25T05:08:37.853Z,4.90
2022-12-25T05:11:10.282Z,5.40
2022-12-25T05:13:37.441Z,3.38
2022-12-25T05:16:07.665Z,3.80
2022-12-25T05:18:34.534Z,4.88
2022-12-25T05:21:01.087Z,4.40
2022-12-25T05:23:27.633Z,4.30
2022-12-25T05:25:54.081Z,6.20
2022-12-25T05:28:21.875Z,5.25
2022-12-25T05:30:48.489Z,5.63
2022-12-25T05:33:15.258Z,2.90
2022-12-25T05:35:41.765Z,4.00
2022-12-25T05:38:08.507Z,4.68
2022-12-25T05:40:38.268Z,4.55
2022-12-25T05:43:04.706Z,3.50
2022-12-25T05:45:32.586Z,5.15
2022-12-25T05:47:59.009Z,3.65
2022-12-25T05:50:25.459Z,4.63
2022-12-25T05:53:08.100Z,4.47
2022-12-25T05:55:36.086Z,5.40
2022-12-25T05:58:02.763Z,2.45
2022-12-25T06:00:29.336Z,3.20
2022-12-25T06:02:57.290Z,3.35
2022-12-25T06:05:24.300Z,2.47
2022-12-25T06:07:50.823Z,3.20
2022-12-25T06:10:17.264Z,3.17
2022-12-25T06:12:43.782Z,3.38
2022-12-25T06:15:10.608Z,2.70
2022-12-25T06:17:37.138Z,5.32
2022-12-25T06:20:41.269Z,4.47
2022-12-25T06:23:18.995Z,4.07
2022-12-25T06:25:45.729Z,3.90
2022-12-25T06:28:17.481Z,4.53
2022-12-25T06:30:44.138Z,2.63
2022-12-25T06:33:10.660Z,3.47
2022-12-25T06:39:32.513Z,4.18
2022-12-25T06:41:59.242Z,4.97
2022-12-25T06:44:25.900Z,4.85
2022-12-25T06:46:53.069Z,4.07
2022-12-25T06:49:19.682Z,5.28
2022-12-25T06:51:46.400Z,5.72
2022-12-25T06:54:16.141Z,5.75
2022-12-25T06:56:47.333Z,4.78
2022-12-25T06:59:14.341Z,6.25
2022-12-25T07:01:46.549Z,8.40
2022-12-25T07:04:16.728Z,5.60
2022-12-25T07:06:43.265Z,5.90
2022-12-25T07:09:09.876Z,3.75
2022-12-25T07:11:36.791Z,6.50
2022-12-25T07:14:05.144Z,4.10
2022-12-25T07:16:31.713Z,5.40
2022-12-25T07:18:59.277Z,7.63
2022-12-25T07:21:25.793Z,6.15
2022-12-25T07:23:52.324Z,6.15
2022-12-25T07:26:21.129Z,4.85
2022-12-25T07:28:47.594Z,4.60
2022-12-25T07:31:17.508Z,4.90
2022-12-25T07:33:44.977Z,3.92
2022-12-25T07:36:12.941Z,5.20
2022-12-25T07:38:40.095Z,5.43
2022-12-25T07:41:08.268Z,5.00
2022-12-25T07:43:34.681Z,5.20
2022-12-25T07:46:01.225Z,5.47
2022-12-25T07:48:29.236Z,6.57
2022-12-25T07:50:57.493Z,4.53
2022-12-25T07:53:23.971Z,4.90
2022-12-25T07:55:57.102Z,4.82
2022-12-25T07:58:23.760Z,5.13
2022-12-25T08:00:50.353Z,4.20
2022-12-25T08:03:17.173Z,5.38
2022-12-25T08:05:45.116Z,6.43
2022-12-25T08:08:11.597Z,6.57
2022-12-25T08:10:38.155Z,4.63
2022-12-25T08:13:09.035Z,5.82
2022-12-25T08:15:39.736Z,5.28
2022-12-25T08:18:06.227Z,6.07
2022-12-25T08:20:33.598Z,5.18
2022-12-25T08:23:01.400Z,8.55
2022-12-25T08:25:27.868Z,9.13
2022-12-25T08:27:54.306Z,7.78
2022-12-25T08:30:22.758Z,6.03
2022-12-25T08:32:49.295Z,6.45
2022-12-25T08:35:15.938Z,6.35
2022-12-25T08:37:42.417Z,8.00
2022-12-25T08:40:11.382Z,5.63
2022-12-25T08:42:37.854Z,5.65
2022-12-25T08:45:04.975Z,5.13
2022-12-25T08:47:31.470Z,6.47
2022-12-25T08:49:57.881Z,5.97
2022-12-25T08:52:24.340Z,6.55
2022-12-25T08:54:50.804Z,6.78
2022-12-25T08:57:18.620Z,5.15
2022-12-25T08:59:45.066Z,6.95
2022-12-25T09:02:12.676Z,7.30
2022-12-25T09:04:41.533Z,5.82
2022-12-25T09:07:11.143Z,4.70
2022-12-25T09:09:37.600Z,5.43
2022-12-25T09:12:08.411Z,6.03
2022-12-25T09:15:32.772Z,6.45
2022-12-25T09:18:01.123Z,7.53
2022-12-25T09:20:32.310Z,5.10
2022-12-25T09:22:58.933Z,4.45
2022-12-25T09:25:25.697Z,7.45
2022-12-25T09:28:07.598Z,6.30
2022-12-25T09:30:37.902Z,7.57
2022-12-25T09:33:04.746Z,8.38
2022-12-25T09:35:31.285Z,5.97
2022-12-25T09:37:57.831Z,6.00
2022-12-25T09:40:28.279Z,6.40
2022-12-25T09:42:56.280Z,6.05
2022-12-25T09:45:26.889Z,5.75
2022-12-25T09:47:56.706Z,6.60
2022-12-25T09:50:33.979Z,7.32
2022-12-25T09:53:05.628Z,7.05
2022-12-25T09:55:35.904Z,8.85
2022-12-25T09:58:10.580Z,6.45
2022-12-25T10:00:41.934Z,6.30
2022-12-25T10:03:26.493Z,7.10
2022-12-25T10:06:07.823Z,9.82
2022-12-25T10:08:54.768Z,7.95
2022-12-25T10:11:32.248Z,9.85
2022-12-25T10:14:10.927Z,10.52
2022-12-25T10:16:46.714Z,8.35
2022-12-25T10:19:31.223Z,7.60
2022-12-25T10:22:00.769Z,7.93
2022-12-25T10:24:33.743Z,6.93
2022-12-25T10:27:03.041Z,7.45
2022-12-25T10:29:31.980Z,6.45
2022-12-25T10:31:58.824Z,7.53
2022-12-25T10:34:27.070Z,7.20
2022-12-25T10:36:53.569Z,6.43
2022-12-25T10:39:21.747Z,7.68
2022-12-25T10:42:01.863Z,9.07
2022-12-25T10:44:28.333Z,5.15
2022-12-25T10:46:56.640Z,6.10
2022-12-25T10:49:25.144Z,9.85
2022-12-25T10:51:52.927Z,6.55
2022-12-25T10:54:22.562Z,8.00
2022-12-25T10:56:53.661Z,5.28
2022-12-25T10:59:20.454Z,7.53
2022-12-25T11:01:51.008Z,4.80
2022-12-25T11:04:22.264Z,9.25
2022-12-25T11:07:05.003Z,5.70
2022-12-25T11:09:31.710Z,5.20
2022-12-25T11:11:59.308Z,4.72
2022-12-25T11:14:26.222Z,6.97
2022-12-25T11:16:52.652Z,5.70
2022-12-25T11:19:30.499Z,6.28
2022-12-25T11:21:58.438Z,5.88
2022-12-25T11:24:28.422Z,5.20
2022-12-25T11:26:56.786Z,5.43
2022-12-25T11:29:30.477Z,5.93
2022-12-25T11:31:59.712Z,7.00
2022-12-25T11:34:31.125Z,8.90
2022-12-25T11:36:59.668Z,5.53
2022-12-25T11:39:31.493Z,4.95
2022-12-25T11:42:02.000Z,6.82
2022-12-25T11:44:38.077Z,7.25
2022-12-25T11:47:13.119Z,7.68
2022-12-25T11:49:49.672Z,7.85
2022-12-25T11:52:18.483Z,7.93
2022-12-25T11:54:51.895Z,8.15
2022-12-25T11:57:18.579Z,8.40
2022-12-25T11:59:52.778Z,11.57
2022-12-25T12:02:28.673Z,10.45
2022-12-25T12:05:06.810Z,9.55
2022-12-25T12:07:34.684Z,9.60
2022-12-25T12:10:14.283Z,6.90
2022-12-25T12:12:50.791Z,8.20
2022-12-25T12:15:26.203Z,12.10
2022-12-25T12:17:52.625Z,10.00
2022-12-25T12:20:29.430Z,9.07
2022-12-25T12:22:56.604Z,7.68
2022-12-25T12:25:25.166Z,8.45
2022-12-25T12:27:59.819Z,8.73
2022-12-25T12:30:32.172Z,8.45
2022-12-25T12:33:00.564Z,9.05
2022-12-25T12:35:31.072Z,6.30
2022-12-25T12:38:00.512Z,7.38
2022-12-25T12:40:32.462Z,7.03
2022-12-25T12:43:00.025Z,7.38
2022-12-25T12:45:30.559Z,8.43
2022-12-25T12:47:58.029Z,7.80
2022-12-25T12:50:36.905Z,8.40
2022-12-25T12:53:21.978Z,7.05
2022-12-25T12:55:50.615Z,8.10
2022-12-25T12:58:27.361Z,7.57
2022-12-25T13:01:11.747Z,7.22
2022-12-25T13:04:00.456Z,8.45
2022-12-25T13:06:33.344Z,5.70
2022-12-25T13:09:09.954Z,8.10
2022-12-25T13:11:42.927Z,7.90
2022-12-25T13:14:15.208Z,9.48
2022-12-25T13:16:45.057Z,9.25
2022-12-25T13:19:14.609Z,9.40
2022-12-25T13:21:50.754Z,7.72
2022-12-25T13:24:20.263Z,11.23
2022-12-25T13:26:48.247Z,10.52
2022-12-25T13:29:29.059Z,11.98
2022-12-25T13:31:56.292Z,12.73
2022-12-25T13:34:28.488Z,14.32
2022-12-25T13:36:56.064Z,11.93
2022-12-25T13:39:23.234Z,10.50
2022-12-25T13:41:53.720Z,16.05
2022-12-25T13:44:22.846Z,12.75
2022-12-25T13:46:50.719Z,12.95
2022-12-25T13:49:20.312Z,11.32
2022-12-25T13:51:47.311Z,10.40
2022-12-25T13:54:16.025Z,11.40
2022-12-25T13:56:49.032Z,11.27
2022-12-25T13:59:19.617Z,11.57
2022-12-25T14:01:47.489Z,9.32
2022-12-25T14:04:15.730Z,11.90
2022-12-25T14:06:42.242Z,9.05
2022-12-25T14:09:09.764Z,11.82
2022-12-25T14:11:36.535Z,8.98
2022-12-25T14:14:07.715Z,8.07
2022-12-25T14:16:35.817Z,5.82
2022-12-25T14:19:02.882Z,7.75
2022-12-25T14:21:32.939Z,7.32
2022-12-25T14:23:59.852Z,5.97
2022-12-25T14:26:29.155Z,7.75
2022-12-25T14:29:02.261Z,5.78
2022-12-25T14:31:29.256Z,6.95
2022-12-25T14:33:58.671Z,5.88
2022-12-25T14:36:26.007Z,7.03
2022-12-25T14:38:57.733Z,7.78
2022-12-25T14:41:28.158Z,7.95
2022-12-25T14:43:55.475Z,8.65
2022-12-25T14:46:23.621Z,8.02
2022-12-25T14:49:00.194Z,8.67
2022-12-25T14:51:28.869Z,8.88
2022-12-25T14:53:57.602Z,8.45
2022-12-25T14:56:26.196Z,7.47
2022-12-25T14:58:54.649Z,7.95
2022-12-25T15:01:27.047Z,7.47
2022-12-25T15:04:05.556Z,8.82
2022-12-25T15:06:32.457Z,7.72
2022-12-25T15:09:00.738Z,8.95
2022-12-25T15:11:28.122Z,6.53
2022-12-25T15:13:54.608Z,8.70
2022-12-25T15:16:22.974Z,10.55
2022-12-25T15:18:50.577Z,8.57
2022-12-25T15:21:25.508Z,7.10
2022-12-25T15:23:52.342Z,9.50
2022-12-25T15:26:18.793Z,9.15
2022-12-25T15:28:45.307Z,10.45
2022-12-25T15:31:19.904Z,11.25
2022-12-25T15:33:46.420Z,12.48
2022-12-25T15:36:12.864Z,11.35
2022-12-25T15:38:40.656Z,7.93
2022-12-25T15:41:12.753Z,8.25
2022-12-25T15:43:40.790Z,7.55
2022-12-25T15:46:09.184Z,10.23
2022-12-25T15:48:35.644Z,8.48
2022-12-25T15:51:02.093Z,10.00
2022-12-25T15:53:28.517Z,8.70
2022-12-25T15:55:56.659Z,10.40
2022-12-25T15:58:23.116Z,7.70
2022-12-25T16:00:50.467Z,9.20
2022-12-25T16:03:16.913Z,9.25
2022-12-25T16:05:43.516Z,7.40
2022-12-25T16:08:09.977Z,9.95
2022-12-25T16:10:38.892Z,9.15
2022-12-25T16:13:07.008Z,7.97
2022-12-25T16:15:33.562Z,8.32
2022-12-25T16:18:00.011Z,9.02
2022-12-25T16:20:26.509Z,9.05
2022-12-25T16:22:53.047Z,7.43
2022-12-25T16:25:20.307Z,9.35
2022-12-25T16:27:47.267Z,8.13
2022-12-25T16:30:17.946Z,8.75
2022-12-25T16:32:45.161Z,9.50
2022-12-25T16:35:12.051Z,8.90
2022-12-25T16:37:39.022Z,8.50
2022-12-25T16:40:06.853Z,9.98
2022-12-25T16:42:33.530Z,8.68
2022-12-25T16:45:00.057Z,9.13
2022-12-25T16:47:27.939Z,8.32
2022-12-25T16:49:54.365Z,8.55
2022-12-25T16:52:20.823Z,8.80
2022-12-25T16:54:47.277Z,10.98
2022-12-25T16:57:13.966Z,9.98
2022-12-25T16:59:40.414Z,10.65
2022-12-25T17:02:07.241Z,10.10
2022-12-25T17:04:35.343Z,11.35
2022-12-25T17:07:01.836Z,11.85
2022-12-25T17:09:28.466Z,11.70
2022-12-25T17:11:54.908Z,12.35
2022-12-25T17:14:21.331Z,8.93
2022-12-25T17:16:47.806Z,8.50
2022-12-25T17:19:17.980Z,5.95
2022-12-25T17:21:46.586Z,6.38
2022-12-25T17:24:13.483Z,5.40
2022-12-25T17:26:40.257Z,3.42
2022-12-25T17:29:06.795Z,5.38
2022-12-25T17:31:33.620Z,5.40
2022-12-25T17:34:01.192Z,3.92
2022-12-25T17:36:27.893Z,5.03
2022-12-25T17:38:55.709Z,6.03
2022-12-25T17:41:22.107Z,4.00
2022-12-25T17:43:48.652Z,3.80
2022-12-25T17:46:16.920Z,3.92
2022-12-25T17:48:43.741Z,6.25
2022-12-25T17:51:12.148Z,5.97
2022-12-25T17:53:40.273Z,5.28
2022-12-25T17:56:09.582Z,4.88
2022-12-25T17:58:36.939Z,3.50
2022-12-25T18:01:06.180Z,3.63
2022-12-25T18:03:32.943Z,3.75
2022-12-25T18:06:00.004Z,4.63
2022-12-25T18:08:26.509Z,3.67
2022-12-25T18:10:52.969Z,4.93
2022-12-25T18:13:20.729Z,5.28
2022-12-25T18:15:47.142Z,6.45
2022-12-25T18:18:13.612Z,3.92
2022-12-25T18:20:41.536Z,5.15
2022-12-25T18:23:08.018Z,3.63
2022-12-25T18:25:34.528Z,4.22
2022-12-25T18:28:02.704Z,5.22
2022-12-25T18:30:30.672Z,4.28
2022-12-25T18:32:57.112Z,3.50
2022-12-25T18:35:23.579Z,4.72
2022-12-25T18:37:50.219Z,4.95
2022-12-25T18:40:16.903Z,5.72
2022-12-25T18:42:43.348Z,7.07
2022-12-25T18:45:12.531Z,4.93
2022-12-25T18:47:40.369Z,5.90
2022-12-25T18:50:08.177Z,4.97
2022-12-25T18:52:50.079Z,5.63
2022-12-25T18:55:17.907Z,5.60
2022-12-25T18:57:44.414Z,5.30
2022-12-25T19:00:11.584Z,4.85
2022-12-25T19:02:38.147Z,5.00
2022-12-25T19:05:06.631Z,3.30
2022-12-25T19:07:33.159Z,5.57
2022-12-25T19:09:59.700Z,3.25
2022-12-25T19:12:26.152Z,4.05
2022-12-25T19:14:52.732Z,4.03
2022-12-25T19:17:19.377Z,4.05
2022-12-25T19:19:46.164Z,3.63
2022-12-25T19:22:13.990Z,3.70
2022-12-25T19:24:40.491Z,4.47
2022-12-25T19:27:07.009Z,5.22
2022-12-25T19:29:33.662Z,5.53
2022-12-25T19:32:00.429Z,4.13
2022-12-25T19:34:27.020Z,3.80
2022-12-25T19:36:53.513Z,6.00
2022-12-25T19:39:21.384Z,4.07
2022-12-25T19:41:48.145Z,4.75
2022-12-25T19:44:14.980Z,4.95
2022-12-25T19:46:41.656Z,4.78
2022-12-25T19:49:11.876Z,6.35
2022-12-25T19:51:40.957Z,5.13
2022-12-25T19:56:35.315Z,7.43
2022-12-25T19:59:01.897Z,4.97
2022-12-25T20:01:29.490Z,5.20
2022-12-25T20:03:56.873Z,6.00
2022-12-25T20:06:26.196Z,5.20
2022-12-25T20:08:54.830Z,4.43
2022-12-25T20:11:23.073Z,3.15
2022-12-25T20:13:51.385Z,5.13
2022-12-25T20:16:17.880Z,4.90
2022-12-25T20:18:44.582Z,4.82
2022-12-25T20:21:13.341Z,4.30
2022-12-25T20:23:40.103Z,3.47
2022-12-25T20:26:06.808Z,6.05
2022-12-25T20:28:36.047Z,4.68
2022-12-25T20:31:07.121Z,4.57
2022-12-25T20:33:34.349Z,6.75
2022-12-25T20:36:02.221Z,4.38
2022-12-25T20:38:28.710Z,3.63
2022-12-25T20:41:25.674Z,6.38
2022-12-25T20:43:45.894Z,6.82
2022-12-25T20:46:14.309Z,5.95
2022-12-25T20:48:40.794Z,10.48
2022-12-25T20:51:08.880Z,12.20
2022-12-25T20:53:35.593Z,9.48
2022-12-25T20:56:02.532Z,6.65
2022-12-25T20:58:29.003Z,6.30
2022-12-25T21:00:56.056Z,6.20
2022-12-25T21:03:24.610Z,7.88
2022-12-25T21:05:51.848Z,6.15
2022-12-25T21:08:19.116Z,8.52
2022-12-25T21:10:46.089Z,6.25
2022-12-25T21:13:12.517Z,5.63
2022-12-25T21:15:43.395Z,7.03
2022-12-25T21:18:09.884Z,4.97
2022-12-25T21:20:37.708Z,6.53
2022-12-25T21:23:04.192Z,4.88
2022-12-25T21:25:30.696Z,3.97
2022-12-25T21:27:57.091Z,5.40
2022-12-25T21:30:23.480Z,3.60
2022-12-25T21:32:50.837Z,4.30
2022-12-25T21:35:17.309Z,4.65
2022-12-25T21:37:45.078Z,5.03
2022-12-25T21:40:16.350Z,6.22
2022-12-25T21:42:43.103Z,3.33
2022-12-25T21:45:09.895Z,5.07
2022-12-25T21:48:02.498Z,5.13
2022-12-25T21:50:22.797Z,4.80
2022-12-25T21:52:50.563Z,3.08
2022-12-25T21:55:17.001Z,5.72
2022-12-25T21:57:43.446Z,4.85
2022-12-25T22:00:12.241Z,2.33
2022-12-25T22:02:38.687Z,5.75
2022-12-25T22:05:06.154Z,4.43
2022-12-25T22:07:32.601Z,5.15
2022-12-25T22:10:00.415Z,2.80
2022-12-25T22:12:33.513Z,2.42
2022-12-25T22:15:01.367Z,3.15
2022-12-25T22:17:29.613Z,4.65
2022-12-25T22:19:56.676Z,3.33
2022-12-25T22:22:25.212Z,3.63
2022-12-25T22:24:53.591Z,2.47
2022-12-25T22:27:22.033Z,2.10
2022-12-25T22:29:48.802Z,1.75
2022-12-25T22:32:16.356Z,2.92
2022-12-25T22:34:43.060Z,2.40
2022-12-25T22:37:13.835Z,2.67
2022-12-25T22:39:40.285Z,4.05
2022-12-25T22:42:06.901Z,2.53
2022-12-25T22:44:34.989Z,2.80
2022-12-25T22:47:01.550Z,3.22
2022-12-25T22:49:29.245Z,2.40
2022-12-25T22:51:56.023Z,2.42
2022-12-25T22:54:23.844Z,2.10
2022-12-25T22:56:52.223Z,3.42
2022-12-25T22:59:21.192Z,2.38
2022-12-25T23:01:49.816Z,3.75
2022-12-25T23:04:16.414Z,2.80
2022-12-25T23:06:42.903Z,2.72
2022-12-25T23:09:13.825Z,2.80
2022-12-25T23:11:42.889Z,2.85
2022-12-25T23:14:11.599Z,2.92
2022-12-25T23:16:38.040Z,3.00
2022-12-25T23:19:06.148Z,2.10
2022-12-25T23:21:32.611Z,2.30
2022-12-25T23:23:59.258Z,3.50
2022-12-25T23:26:25.672Z,2.75
2022-12-25T23:28:52.071Z,1.77
2022-12-25T23:31:22.307Z,2.88
2022-12-25T23:33:48.923Z,2.83
2022-12-25T23:36:16.725Z,2.72
2022-12-25T23:38:43.272Z,4.47
2022-12-25T23:41:09.714Z,2.47
2022-12-25T23:43:36.150Z,4.28
2022-12-25T23:46:02.667Z,2.67
2022-12-25T23:48:29.250Z,2.25
2022-12-25T23:50:55.908Z,3.88
2022-12-25T23:53:23.697Z,2.95
2022-12-25T23:55:55.320Z,2.40
2022-12-25T23:58:22.370Z,2.35
